sensor_id;sensor_type;location;lat;lon;timestamp;P1;durP1;ratioP1;P2;durP2;ratioP2
61460;SDS011;47325;50.506;4.472;2023-02-16T00:05:32;33.80;;;19.20;;
61460;SDS011;47325;50.506;4.472;2023-02-16T00:11:23;31.90;;;19.50;;
61460;SDS011;47325;50.506;4.472;2023-02-16T00:17:09;33.70;;;19.70;;
61460;SDS011;47325;50.506;4.472;2023-02-16T00:22:53;33.30;;;19.90;;
61460;SDS011;47325;50.506;4.472;2023-02-16T00:28:37;33.30;;;19.50;;
61460;SDS011;47325;50.506;4.472;2023-02-16T00:34:30;32.20;;;18.90;;
61460;SDS011;47325;50.506;4.472;2023-02-16T00:40:15;35.90;;;20.60;;
61460;SDS011;47325;50.506;4.472;2023-02-16T00:46:00;33.70;;;19.10;;
61460;SDS011;47325;50.506;4.472;2023-02-16T00:51:44;32.80;;;19.20;;
61460;SDS011;47325;50.506;4.472;2023-02-16T00:57:30;31.40;;;19.30;;
61460;SDS011;47325;50.506;4.472;2023-02-16T01:03:15;34.20;;;19.40;;
61460;SDS011;47325;50.506;4.472;2023-02-16T01:09:08;31.50;;;19.30;;
61460;SDS011;47325;50.506;4.472;2023-02-16T01:14:54;33.20;;;19.20;;
61460;SDS011;47325;50.506;4.472;2023-02-16T01:20:37;32.70;;;19.30;;
61460;SDS011;47325;50.506;4.472;2023-02-16T01:26:21;31.50;;;18.80;;
61460;SDS011;47325;50.506;4.472;2023-02-16T01:32:05;32.90;;;18.90;;
61460;SDS011;47325;50.506;4.472;2023-02-16T01:37:49;33.50;;;19.50;;
61460;SDS011;47325;50.506;4.472;2023-02-16T01:43:35;33.40;;;19.70;;
61460;SDS011;47325;50.506;4.472;2023-02-16T01:49:21;32.80;;;18.60;;
61460;SDS011;47325;50.506;4.472;2023-02-16T01:55:09;33.20;;;19.30;;
61460;SDS011;47325;50.506;4.472;2023-02-16T02:06:51;32.50;;;19.10;;
61460;SDS011;47325;50.506;4.472;2023-02-16T02:12:36;31.70;;;18.50;;
61460;SDS011;47325;50.506;4.472;2023-02-16T02:18:23;31.60;;;18.50;;
61460;SDS011;47325;50.506;4.472;2023-02-16T02:24:13;33.30;;;18.30;;
61460;SDS011;47325;50.506;4.472;2023-02-16T02:30:06;31.10;;;18.60;;
61460;SDS011;47325;50.506;4.472;2023-02-16T02:35:54;30.40;;;18.30;;
61460;SDS011;47325;50.506;4.472;2023-02-16T02:41:41;32.00;;;18.30;;
61460;SDS011;47325;50.506;4.472;2023-02-16T02:47:39;29.30;;;17.50;;
61460;SDS011;47325;50.506;4.472;2023-02-16T02:53:24;29.20;;;17.30;;
61460;SDS011;47325;50.506;4.472;2023-02-16T02:59:08;32.30;;;18.00;;
61460;SDS011;47325;50.506;4.472;2023-02-16T03:04:52;30.60;;;18.20;;
61460;SDS011;47325;50.506;4.472;2023-02-16T03:10:39;29.90;;;17.60;;
61460;SDS011;47325;50.506;4.472;2023-02-16T03:16:24;30.60;;;18.20;;
61460;SDS011;47325;50.506;4.472;2023-02-16T03:22:10;34.20;;;18.70;;
61460;SDS011;47325;50.506;4.472;2023-02-16T03:27:54;35.80;;;19.10;;
61460;SDS011;47325;50.506;4.472;2023-02-16T03:33:38;35.60;;;19.30;;
61460;SDS011;47325;50.506;4.472;2023-02-16T03:39:22;41.20;;;20.20;;
61460;SDS011;47325;50.506;4.472;2023-02-16T03:45:08;36.20;;;19.40;;
61460;SDS011;47325;50.506;4.472;2023-02-16T03:50:51;39.90;;;19.90;;
61460;SDS011;47325;50.506;4.472;2023-02-16T03:56:35;36.90;;;19.90;;
61460;SDS011;47325;50.506;4.472;2023-02-16T04:02:19;38.90;;;20.20;;
61460;SDS011;47325;50.506;4.472;2023-02-16T04:08:04;37.20;;;19.70;;
61460;SDS011;47325;50.506;4.472;2023-02-16T04:13:48;38.90;;;19.80;;
61460;SDS011;47325;50.506;4.472;2023-02-16T04:19:31;33.50;;;18.90;;
61460;SDS011;47325;50.506;4.472;2023-02-16T04:25:16;33.20;;;18.50;;
61460;SDS011;47325;50.506;4.472;2023-02-16T04:31:00;33.60;;;18.40;;
61460;SDS011;47325;50.506;4.472;2023-02-16T04:36:46;34.90;;;18.60;;
61460;SDS011;47325;50.506;4.472;2023-02-16T04:42:30;36.20;;;18.80;;
61460;SDS011;47325;50.506;4.472;2023-02-16T04:48:14;32.30;;;18.10;;
61460;SDS011;47325;50.506;4.472;2023-02-16T04:53:58;31.60;;;18.00;;
61460;SDS011;47325;50.506;4.472;2023-02-16T04:59:42;31.90;;;18.50;;
61460;SDS011;47325;50.506;4.472;2023-02-16T05:05:25;30.00;;;16.90;;
61460;SDS011;47325;50.506;4.472;2023-02-16T05:11:09;32.70;;;17.90;;
61460;SDS011;47325;50.506;4.472;2023-02-16T05:16:53;31.60;;;17.40;;
61460;SDS011;47325;50.506;4.472;2023-02-16T05:22:36;31.40;;;17.70;;
61460;SDS011;47325;50.506;4.472;2023-02-16T05:28:20;33.10;;;18.00;;
61460;SDS011;47325;50.506;4.472;2023-02-16T05:34:06;31.90;;;17.70;;
61460;SDS011;47325;50.506;4.472;2023-02-16T05:39:50;33.60;;;18.00;;
61460;SDS011;47325;50.506;4.472;2023-02-16T05:45:33;30.20;;;17.80;;
61460;SDS011;47325;50.506;4.472;2023-02-16T05:51:17;30.30;;;17.40;;
61460;SDS011;47325;50.506;4.472;2023-02-16T05:57:01;31.50;;;17.50;;
61460;SDS011;47325;50.506;4.472;2023-02-16T06:02:45;33.00;;;18.20;;
61460;SDS011;47325;50.506;4.472;2023-02-16T06:08:29;33.20;;;18.10;;
61460;SDS011;47325;50.506;4.472;2023-02-16T06:14:14;31.50;;;18.00;;
61460;SDS011;47325;50.506;4.472;2023-02-16T06:19:58;33.30;;;18.00;;
61460;SDS011;47325;50.506;4.472;2023-02-16T06:25:44;33.20;;;18.20;;
61460;SDS011;47325;50.506;4.472;2023-02-16T06:31:28;32.40;;;18.80;;
61460;SDS011;47325;50.506;4.472;2023-02-16T06:37:15;31.80;;;17.80;;
61460;SDS011;47325;50.506;4.472;2023-02-16T06:42:58;31.50;;;17.40;;
61460;SDS011;47325;50.506;4.472;2023-02-16T06:48:43;29.70;;;17.20;;
61460;SDS011;47325;50.506;4.472;2023-02-16T06:54:28;29.30;;;16.60;;
61460;SDS011;47325;50.506;4.472;2023-02-16T07:00:13;30.40;;;17.30;;
61460;SDS011;47325;50.506;4.472;2023-02-16T07:05:56;32.50;;;17.30;;
61460;SDS011;47325;50.506;4.472;2023-02-16T07:11:40;30.10;;;16.80;;
61460;SDS011;47325;50.506;4.472;2023-02-16T07:17:24;28.10;;;16.40;;
61460;SDS011;47325;50.506;4.472;2023-02-16T07:23:07;29.80;;;16.60;;
61460;SDS011;47325;50.506;4.472;2023-02-16T07:28:51;25.70;;;15.80;;
61460;SDS011;47325;50.506;4.472;2023-02-16T07:34:35;26.70;;;16.40;;
61460;SDS011;47325;50.506;4.472;2023-02-16T07:40:20;26.70;;;15.90;;
61460;SDS011;47325;50.506;4.472;2023-02-16T07:46:04;28.80;;;15.80;;
61460;SDS011;47325;50.506;4.472;2023-02-16T07:51:48;26.00;;;15.30;;
61460;SDS011;47325;50.506;4.472;2023-02-16T07:57:32;26.40;;;15.70;;
61460;SDS011;47325;50.506;4.472;2023-02-16T08:03:15;25.10;;;14.80;;
61460;SDS011;47325;50.506;4.472;2023-02-16T08:08:59;24.80;;;15.00;;
61460;SDS011;47325;50.506;4.472;2023-02-16T08:14:43;24.60;;;14.70;;
61460;SDS011;47325;50.506;4.472;2023-02-16T08:20:27;25.10;;;14.50;;
61460;SDS011;47325;50.506;4.472;2023-02-16T08:26:32;24.60;;;14.90;;
61460;SDS011;47325;50.506;4.472;2023-02-16T08:32:16;23.00;;;14.80;;
61460;SDS011;47325;50.506;4.472;2023-02-16T08:38:00;25.50;;;14.20;;
61460;SDS011;47325;50.506;4.472;2023-02-16T08:43:44;23.80;;;13.30;;
61460;SDS011;47325;50.506;4.472;2023-02-16T08:49:28;26.50;;;14.20;;
61460;SDS011;47325;50.506;4.472;2023-02-16T08:55:11;20.50;;;13.70;;
61460;SDS011;47325;50.506;4.472;2023-02-16T09:00:55;27.20;;;14.30;;
61460;SDS011;47325;50.506;4.472;2023-02-16T09:06:41;20.60;;;13.30;;
61460;SDS011;47325;50.506;4.472;2023-02-16T09:12:26;22.80;;;14.00;;
61460;SDS011;47325;50.506;4.472;2023-02-16T09:18:10;24.30;;;13.50;;
61460;SDS011;47325;50.506;4.472;2023-02-16T09:23:54;23.30;;;13.60;;
61460;SDS011;47325;50.506;4.472;2023-02-16T09:29:39;22.10;;;13.80;;
61460;SDS011;47325;50.506;4.472;2023-02-16T09:35:23;21.70;;;12.80;;
61460;SDS011;47325;50.506;4.472;2023-02-16T09:41:13;19.40;;;12.40;;
61460;SDS011;47325;50.506;4.472;2023-02-16T09:47:00;19.60;;;12.20;;
61460;SDS011;47325;50.506;4.472;2023-02-16T09:52:47;18.30;;;12.40;;
61460;SDS011;47325;50.506;4.472;2023-02-16T09:58:36;22.50;;;12.70;;
61460;SDS011;47325;50.506;4.472;2023-02-16T10:04:26;20.30;;;12.70;;
61460;SDS011;47325;50.506;4.472;2023-02-16T10:10:14;19.40;;;12.30;;
61460;SDS011;47325;50.506;4.472;2023-02-16T10:15:59;19.80;;;12.70;;
61460;SDS011;47325;50.506;4.472;2023-02-16T10:21:43;19.60;;;12.80;;
61460;SDS011;47325;50.506;4.472;2023-02-16T10:27:31;19.70;;;12.50;;
61460;SDS011;47325;50.506;4.472;2023-02-16T10:33:26;18.30;;;12.10;;
61460;SDS011;47325;50.506;4.472;2023-02-16T10:39:05;18.00;;;11.70;;
61460;SDS011;47325;50.506;4.472;2023-02-16T10:44:53;20.30;;;12.30;;
61460;SDS011;47325;50.506;4.472;2023-02-16T10:50:40;18.70;;;12.10;;
61460;SDS011;47325;50.506;4.472;2023-02-16T10:56:31;18.20;;;12.10;;
61460;SDS011;47325;50.506;4.472;2023-02-16T11:02:23;18.50;;;12.10;;
61460;SDS011;47325;50.506;4.472;2023-02-16T11:08:08;20.00;;;12.10;;
61460;SDS011;47325;50.506;4.472;2023-02-16T11:13:56;18.00;;;11.20;;
61460;SDS011;47325;50.506;4.472;2023-02-16T11:19:46;17.50;;;11.20;;
61460;SDS011;47325;50.506;4.472;2023-02-16T11:25:29;17.10;;;11.00;;
61460;SDS011;47325;50.506;4.472;2023-02-16T11:31:17;19.20;;;11.60;;
61460;SDS011;47325;50.506;4.472;2023-02-16T11:37:06;17.30;;;11.00;;
61460;SDS011;47325;50.506;4.472;2023-02-16T11:42:52;17.70;;;11.30;;
61460;SDS011;47325;50.506;4.472;2023-02-16T11:48:36;17.40;;;11.50;;
61460;SDS011;47325;50.506;4.472;2023-02-16T11:54:20;16.60;;;11.00;;
61460;SDS011;47325;50.506;4.472;2023-02-16T12:00:12;17.50;;;11.40;;
61460;SDS011;47325;50.506;4.472;2023-02-16T12:05:56;18.70;;;11.50;;
61460;SDS011;47325;50.506;4.472;2023-02-16T12:11:47;19.20;;;11.30;;
61460;SDS011;47325;50.506;4.472;2023-02-16T12:17:41;18.70;;;11.70;;
61460;SDS011;47325;50.506;4.472;2023-02-16T12:23:32;17.10;;;11.40;;
61460;SDS011;47325;50.506;4.472;2023-02-16T12:29:21;17.30;;;10.50;;
61460;SDS011;47325;50.506;4.472;2023-02-16T12:35:15;17.70;;;11.10;;
61460;SDS011;47325;50.506;4.472;2023-02-16T12:41:03;17.80;;;10.90;;
61460;SDS011;47325;50.506;4.472;2023-02-16T12:46:50;17.30;;;10.90;;
61460;SDS011;47325;50.506;4.472;2023-02-16T12:52:39;17.80;;;11.40;;
61460;SDS011;47325;50.506;4.472;2023-02-16T12:58:25;17.30;;;11.20;;
61460;SDS011;47325;50.506;4.472;2023-02-16T13:04:16;17.50;;;10.70;;
61460;SDS011;47325;50.506;4.472;2023-02-16T13:10:01;19.30;;;11.20;;
61460;SDS011;47325;50.506;4.472;2023-02-16T13:15:46;15.70;;;10.80;;
61460;SDS011;47325;50.506;4.472;2023-02-16T13:27:42;16.90;;;10.70;;
61460;SDS011;47325;50.506;4.472;2023-02-16T13:33:35;15.10;;;10.20;;
61460;SDS011;47325;50.506;4.472;2023-02-16T13:45:18;16.90;;;10.50;;
61460;SDS011;47325;50.506;4.472;2023-02-16T13:51:05;15.40;;;10.40;;
61460;SDS011;47325;50.506;4.472;2023-02-16T13:56:52;17.40;;;10.60;;
61460;SDS011;47325;50.506;4.472;2023-02-16T14:08:34;14.40;;;9.50;;
61460;SDS011;47325;50.506;4.472;2023-02-16T14:14:28;15.00;;;9.50;;
61460;SDS011;47325;50.506;4.472;2023-02-16T14:26:10;14.90;;;9.30;;
61460;SDS011;47325;50.506;4.472;2023-02-16T14:31:57;14.80;;;9.50;;
61460;SDS011;47325;50.506;4.472;2023-02-16T14:37:43;15.70;;;9.20;;
61460;SDS011;47325;50.506;4.472;2023-02-16T14:43:29;13.80;;;8.70;;
61460;SDS011;47325;50.506;4.472;2023-02-16T15:01:11;14.90;;;9.20;;
61460;SDS011;47325;50.506;4.472;2023-02-16T15:06:55;14.40;;;8.90;;
61460;SDS011;47325;50.506;4.472;2023-02-16T15:12:41;14.70;;;8.60;;
61460;SDS011;47325;50.506;4.472;2023-02-16T15:18:26;14.20;;;8.80;;
61460;SDS011;47325;50.506;4.472;2023-02-16T15:24:19;13.20;;;8.70;;
61460;SDS011;47325;50.506;4.472;2023-02-16T15:30:21;12.40;;;8.60;;
61460;SDS011;47325;50.506;4.472;2023-02-16T15:35:59;14.00;;;8.70;;
61460;SDS011;47325;50.506;4.472;2023-02-16T15:41:44;13.90;;;8.20;;
61460;SDS011;47325;50.506;4.472;2023-02-16T15:47:28;12.00;;;8.30;;
61460;SDS011;47325;50.506;4.472;2023-02-16T15:53:14;11.60;;;8.40;;
61460;SDS011;47325;50.506;4.472;2023-02-16T15:59:03;12.70;;;8.30;;
61460;SDS011;47325;50.506;4.472;2023-02-16T16:04:49;12.30;;;8.20;;
61460;SDS011;47325;50.506;4.472;2023-02-16T16:10:36;12.80;;;8.80;;
61460;SDS011;47325;50.506;4.472;2023-02-16T16:16:21;12.90;;;8.60;;
61460;SDS011;47325;50.506;4.472;2023-02-16T16:22:12;13.80;;;8.60;;
61460;SDS011;47325;50.506;4.472;2023-02-16T16:27:57;12.80;;;8.30;;
61460;SDS011;47325;50.506;4.472;2023-02-16T16:33:58;12.90;;;9.00;;
61460;SDS011;47325;50.506;4.472;2023-02-16T16:39:42;12.10;;;8.40;;
61460;SDS011;47325;50.506;4.472;2023-02-16T16:45:38;13.80;;;8.80;;
61460;SDS011;47325;50.506;4.472;2023-02-16T16:51:33;13.50;;;8.70;;
61460;SDS011;47325;50.506;4.472;2023-02-16T16:57:14;12.80;;;8.80;;
61460;SDS011;47325;50.506;4.472;2023-02-16T17:02:59;15.10;;;9.20;;
61460;SDS011;47325;50.506;4.472;2023-02-16T17:08:43;13.70;;;9.20;;
61460;SDS011;47325;50.506;4.472;2023-02-16T17:14:27;13.40;;;9.20;;
61460;SDS011;47325;50.506;4.472;2023-02-16T17:25:56;14.70;;;9.60;;
61460;SDS011;47325;50.506;4.472;2023-02-16T17:31:41;16.70;;;11.60;;
61460;SDS011;47325;50.506;4.472;2023-02-16T17:37:25;26.40;;;16.80;;
61460;SDS011;47325;50.506;4.472;2023-02-16T17:43:18;22.10;;;14.20;;
61460;SDS011;47325;50.506;4.472;2023-02-16T17:49:02;21.60;;;13.60;;
61460;SDS011;47325;50.506;4.472;2023-02-16T17:54:46;18.30;;;12.60;;
61460;SDS011;47325;50.506;4.472;2023-02-16T18:00:29;20.90;;;13.50;;
61460;SDS011;47325;50.506;4.472;2023-02-16T18:06:14;21.10;;;12.60;;
61460;SDS011;47325;50.506;4.472;2023-02-16T18:11:58;19.80;;;12.40;;
61460;SDS011;47325;50.506;4.472;2023-02-16T18:17:42;17.40;;;12.30;;
61460;SDS011;47325;50.506;4.472;2023-02-16T18:23:26;18.00;;;11.90;;
61460;SDS011;47325;50.506;4.472;2023-02-16T18:29:10;18.60;;;11.80;;
61460;SDS011;47325;50.506;4.472;2023-02-16T18:34:55;19.80;;;11.80;;
61460;SDS011;47325;50.506;4.472;2023-02-16T18:40:39;16.00;;;11.20;;
61460;SDS011;47325;50.506;4.472;2023-02-16T18:46:23;17.40;;;11.30;;
61460;SDS011;47325;50.506;4.472;2023-02-16T18:52:07;18.30;;;11.50;;
61460;SDS011;47325;50.506;4.472;2023-02-16T18:57:51;16.80;;;11.00;;
61460;SDS011;47325;50.506;4.472;2023-02-16T19:03:35;17.50;;;10.90;;
61460;SDS011;47325;50.506;4.472;2023-02-16T19:09:19;14.90;;;10.80;;
61460;SDS011;47325;50.506;4.472;2023-02-16T19:15:04;16.90;;;10.90;;
61460;SDS011;47325;50.506;4.472;2023-02-16T19:20:47;16.00;;;10.60;;
61460;SDS011;47325;50.506;4.472;2023-02-16T19:26:31;16.40;;;10.70;;
61460;SDS011;47325;50.506;4.472;2023-02-16T19:32:15;16.30;;;10.30;;
61460;SDS011;47325;50.506;4.472;2023-02-16T19:37:59;14.90;;;10.10;;
61460;SDS011;47325;50.506;4.472;2023-02-16T19:43:43;17.90;;;10.50;;
61460;SDS011;47325;50.506;4.472;2023-02-16T19:49:27;15.70;;;10.50;;
61460;SDS011;47325;50.506;4.472;2023-02-16T19:55:11;15.60;;;10.40;;
61460;SDS011;47325;50.506;4.472;2023-02-16T20:00:55;16.10;;;10.20;;
61460;SDS011;47325;50.506;4.472;2023-02-16T20:06:38;15.00;;;10.00;;
61460;SDS011;47325;50.506;4.472;2023-02-16T20:12:22;14.20;;;9.60;;
61460;SDS011;47325;50.506;4.472;2023-02-16T20:18:06;15.10;;;9.50;;
61460;SDS011;47325;50.506;4.472;2023-02-16T20:23:51;13.30;;;8.90;;
61460;SDS011;47325;50.506;4.472;2023-02-16T20:29:35;13.10;;;8.50;;
61460;SDS011;47325;50.506;4.472;2023-02-16T20:35:19;13.70;;;8.50;;
61460;SDS011;47325;50.506;4.472;2023-02-16T20:41:03;13.40;;;8.00;;
61460;SDS011;47325;50.506;4.472;2023-02-16T20:46:47;12.30;;;8.20;;
61460;SDS011;47325;50.506;4.472;2023-02-16T20:52:32;11.70;;;7.50;;
61460;SDS011;47325;50.506;4.472;2023-02-16T20:58:15;11.80;;;7.60;;
61460;SDS011;47325;50.506;4.472;2023-02-16T21:03:59;11.80;;;7.50;;
61460;SDS011;47325;50.506;4.472;2023-02-16T21:09:43;11.40;;;6.80;;
61460;SDS011;47325;50.506;4.472;2023-02-16T21:15:27;10.50;;;7.10;;
61460;SDS011;47325;50.506;4.472;2023-02-16T21:21:10;10.40;;;6.80;;
61460;SDS011;47325;50.506;4.472;2023-02-16T21:26:54;10.20;;;6.70;;
61460;SDS011;47325;50.506;4.472;2023-02-16T21:32:38;9.60;;;6.10;;
61460;SDS011;47325;50.506;4.472;2023-02-16T21:38:21;9.10;;;6.10;;
61460;SDS011;47325;50.506;4.472;2023-02-16T21:44:05;9.30;;;5.60;;
61460;SDS011;47325;50.506;4.472;2023-02-16T21:49:50;8.90;;;5.70;;
61460;SDS011;47325;50.506;4.472;2023-02-16T21:55:34;7.30;;;5.00;;
61460;SDS011;47325;50.506;4.472;2023-02-16T22:01:22;7.80;;;4.80;;
61460;SDS011;47325;50.506;4.472;2023-02-16T22:07:06;7.40;;;5.00;;
61460;SDS011;47325;50.506;4.472;2023-02-16T22:12:50;8.30;;;5.40;;
61460;SDS011;47325;50.506;4.472;2023-02-16T22:18:33;9.10;;;4.90;;
61460;SDS011;47325;50.506;4.472;2023-02-16T22:24:17;7.40;;;4.80;;
61460;SDS011;47325;50.506;4.472;2023-02-16T22:30:02;11.30;;;4.90;;
61460;SDS011;47325;50.506;4.472;2023-02-16T22:35:48;8.40;;;5.20;;
61460;SDS011;47325;50.506;4.472;2023-02-16T22:41:32;6.60;;;4.50;;
61460;SDS011;47325;50.506;4.472;2023-02-16T22:47:16;7.30;;;4.80;;
61460;SDS011;47325;50.506;4.472;2023-02-16T22:53:00;6.70;;;4.50;;
61460;SDS011;47325;50.506;4.472;2023-02-16T22:58:43;9.20;;;4.70;;
61460;SDS011;47325;50.506;4.472;2023-02-16T23:04:28;6.60;;;4.40;;
61460;SDS011;47325;50.506;4.472;2023-02-16T23:10:11;6.00;;;4.30;;
61460;SDS011;47325;50.506;4.472;2023-02-16T23:15:55;6.30;;;4.50;;
61460;SDS011;47325;50.506;4.472;2023-02-16T23:21:39;5.70;;;4.20;;
61460;SDS011;47325;50.506;4.472;2023-02-16T23:27:24;8.10;;;4.70;;
61460;SDS011;47325;50.506;4.472;2023-02-16T23:33:07;6.90;;;4.60;;
61460;SDS011;47325;50.506;4.472;2023-02-16T23:38:51;6.90;;;4.40;;
61460;SDS011;47325;50.506;4.472;2023-02-16T23:44:35;6.80;;;4.90;;
61460;SDS011;47325;50.506;4.472;2023-02-16T23:50:18;6.80;;;4.60;;
61460;SDS011;47325;50.506;4.472;2023-02-16T23:56:03;5.70;;;4.30;;
